sensor_id;sensor_type;location;lat;lon;timestamp;P1;durP1;ratioP1;P2;durP2;ratioP2
37455;SDS011;23316;50.718;7.328;2022-12-24T00:01:42;22.45;;;3.75;;
37455;SDS011;23316;50.718;7.328;2022-12-24T00:04:09;26.05;;;4.10;;
37455;SDS011;23316;50.718;7.328;2022-12-24T00:06:38;24.25;;;3.00;;
37455;SDS011;23316;50.718;7.328;2022-12-24T00:09:05;21.35;;;3.83;;
37455;SDS011;23316;50.718;7.328;2022-12-24T00:11:32;17.58;;;2.90;;
37455;SDS011;23316;50.718;7.328;2022-12-24T00:14:00;25.80;;;4.35;;
37455;SDS011;23316;50.718;7.328;2022-12-24T00:16:27;23.85;;;3.75;;
37455;SDS011;23316;50.718;7.328;2022-12-24T00:18:54;14.77;;;2.80;;
37455;SDS011;23316;50.718;7.328;2022-12-24T00:21:21;11.02;;;2.65;;
37455;SDS011;23316;50.718;7.328;2022-12-24T00:23:50;16.13;;;3.40;;
37455;SDS011;23316;50.718;7.328;2022-12-24T00:26:17;25.40;;;4.20;;
37455;SDS011;23316;50.718;7.328;2022-12-24T00:28:44;18.38;;;2.97;;
37455;SDS011;23316;50.718;7.328;2022-12-24T00:31:12;21.80;;;3.42;;
37455;SDS011;23316;50.718;7.328;2022-12-24T00:33:41;18.50;;;2.85;;
37455;SDS011;23316;50.718;7.328;2022-12-24T00:36:08;24.48;;;3.30;;
37455;SDS011;23316;50.718;7.328;2022-12-24T00:38:35;21.38;;;3.58;;
37455;SDS011;23316;50.718;7.328;2022-12-24T00:41:05;16.55;;;3.13;;
37455;SDS011;23316;50.718;7.328;2022-12-24T00:43:49;17.02;;;2.80;;
37455;SDS011;23316;50.718;7.328;2022-12-24T00:46:16;21.52;;;2.90;;
37455;SDS011;23316;50.718;7.328;2022-12-24T00:48:43;19.90;;;3.35;;
37455;SDS011;23316;50.718;7.328;2022-12-24T00:51:11;22.05;;;3.20;;
37455;SDS011;23316;50.718;7.328;2022-12-24T00:53:38;18.58;;;3.00;;
37455;SDS011;23316;50.718;7.328;2022-12-24T00:56:07;19.83;;;3.42;;
37455;SDS011;23316;50.718;7.328;2022-12-24T00:58:34;12.85;;;2.83;;
37455;SDS011;23316;50.718;7.328;2022-12-24T01:01:02;17.73;;;3.22;;
37455;SDS011;23316;50.718;7.328;2022-12-24T01:03:30;12.95;;;2.35;;
37455;SDS011;23316;50.718;7.328;2022-12-24T01:06:00;24.38;;;3.00;;
37455;SDS011;23316;50.718;7.328;2022-12-24T01:08:28;17.77;;;3.15;;
37455;SDS011;23316;50.718;7.328;2022-12-24T01:10:55;18.70;;;2.78;;
37455;SDS011;23316;50.718;7.328;2022-12-24T01:13:24;12.63;;;2.17;;
37455;SDS011;23316;50.718;7.328;2022-12-24T01:15:51;17.85;;;3.28;;
37455;SDS011;23316;50.718;7.328;2022-12-24T01:18:19;14.00;;;2.60;;
37455;SDS011;23316;50.718;7.328;2022-12-24T01:20:53;18.05;;;2.88;;
37455;SDS011;23316;50.718;7.328;2022-12-24T01:23:22;16.10;;;2.70;;
37455;SDS011;23316;50.718;7.328;2022-12-24T01:25:49;16.60;;;2.92;;
37455;SDS011;23316;50.718;7.328;2022-12-24T01:28:17;23.50;;;3.70;;
37455;SDS011;23316;50.718;7.328;2022-12-24T01:30:45;14.18;;;2.25;;
37455;SDS011;23316;50.718;7.328;2022-12-24T01:33:13;13.73;;;2.72;;
37455;SDS011;23316;50.718;7.328;2022-12-24T01:35:40;14.90;;;2.65;;
37455;SDS011;23316;50.718;7.328;2022-12-24T01:38:08;13.43;;;2.42;;
37455;SDS011;23316;50.718;7.328;2022-12-24T01:40:37;17.73;;;3.08;;
37455;SDS011;23316;50.718;7.328;2022-12-24T01:43:22;15.93;;;2.60;;
37455;SDS011;23316;50.718;7.328;2022-12-24T01:45:55;22.17;;;3.13;;
37455;SDS011;23316;50.718;7.328;2022-12-24T01:48:32;15.77;;;3.05;;
37455;SDS011;23316;50.718;7.328;2022-12-24T01:51:04;25.45;;;3.15;;
37455;SDS011;23316;50.718;7.328;2022-12-24T01:53:38;23.60;;;3.70;;
37455;SDS011;23316;50.718;7.328;2022-12-24T01:56:08;14.63;;;2.85;;
37455;SDS011;23316;50.718;7.328;2022-12-24T01:58:37;16.05;;;3.05;;
37455;SDS011;23316;50.718;7.328;2022-12-24T02:01:07;15.00;;;2.70;;
37455;SDS011;23316;50.718;7.328;2022-12-24T02:03:35;21.25;;;3.30;;
37455;SDS011;23316;50.718;7.328;2022-12-24T02:06:02;22.65;;;3.47;;
37455;SDS011;23316;50.718;7.328;2022-12-24T02:08:31;13.27;;;2.55;;
37455;SDS011;23316;50.718;7.328;2022-12-24T02:11:09;16.17;;;3.15;;
37455;SDS011;23316;50.718;7.328;2022-12-24T02:13:37;18.52;;;2.55;;
37455;SDS011;23316;50.718;7.328;2022-12-24T02:16:07;14.35;;;2.90;;
37455;SDS011;23316;50.718;7.328;2022-12-24T02:18:46;16.88;;;2.75;;
37455;SDS011;23316;50.718;7.328;2022-12-24T02:21:33;22.40;;;3.15;;
37455;SDS011;23316;50.718;7.328;2022-12-24T02:27:13;13.23;;;2.42;;
37455;SDS011;23316;50.718;7.328;2022-12-24T02:29:58;16.20;;;3.05;;
37455;SDS011;23316;50.718;7.328;2022-12-24T02:32:32;10.60;;;1.95;;
37455;SDS011;23316;50.718;7.328;2022-12-24T02:35:07;18.52;;;2.63;;
37455;SDS011;23316;50.718;7.328;2022-12-24T02:37:38;18.73;;;3.03;;
37455;SDS011;23316;50.718;7.328;2022-12-24T02:40:10;17.45;;;2.80;;
37455;SDS011;23316;50.718;7.328;2022-12-24T02:42:41;14.57;;;2.60;;
37455;SDS011;23316;50.718;7.328;2022-12-24T02:45:14;15.75;;;2.50;;
37455;SDS011;23316;50.718;7.328;2022-12-24T02:47:44;13.95;;;2.60;;
37455;SDS011;23316;50.718;7.328;2022-12-24T02:50:12;15.35;;;2.50;;
37455;SDS011;23316;50.718;7.328;2022-12-24T02:52:41;16.05;;;2.85;;
37455;SDS011;23316;50.718;7.328;2022-12-24T02:55:10;9.50;;;2.00;;
37455;SDS011;23316;50.718;7.328;2022-12-24T02:57:42;15.30;;;2.28;;
37455;SDS011;23316;50.718;7.328;2022-12-24T03:00:37;18.80;;;2.90;;
37455;SDS011;23316;50.718;7.328;2022-12-24T03:03:13;14.25;;;2.65;;
37455;SDS011;23316;50.718;7.328;2022-12-24T03:05:55;17.88;;;3.03;;
37455;SDS011;23316;50.718;7.328;2022-12-24T03:08:33;13.80;;;2.55;;
37455;SDS011;23316;50.718;7.328;2022-12-24T03:11:09;14.73;;;2.80;;
37455;SDS011;23316;50.718;7.328;2022-12-24T03:13:39;21.63;;;2.42;;
37455;SDS011;23316;50.718;7.328;2022-12-24T03:16:09;15.98;;;2.38;;
37455;SDS011;23316;50.718;7.328;2022-12-24T03:18:39;12.07;;;2.30;;
37455;SDS011;23316;50.718;7.328;2022-12-24T03:21:12;13.20;;;2.45;;
37455;SDS011;23316;50.718;7.328;2022-12-24T03:23:43;13.48;;;2.40;;
37455;SDS011;23316;50.718;7.328;2022-12-24T03:26:11;13.90;;;2.55;;
37455;SDS011;23316;50.718;7.328;2022-12-24T03:28:41;13.70;;;2.28;;
37455;SDS011;23316;50.718;7.328;2022-12-24T03:31:10;14.95;;;2.50;;
37455;SDS011;23316;50.718;7.328;2022-12-24T03:33:39;14.18;;;2.10;;
37455;SDS011;23316;50.718;7.328;2022-12-24T03:36:07;19.20;;;3.28;;
37455;SDS011;23316;50.718;7.328;2022-12-24T03:38:35;13.63;;;2.45;;
37455;SDS011;23316;50.718;7.328;2022-12-24T03:41:02;15.10;;;2.95;;
37455;SDS011;23316;50.718;7.328;2022-12-24T03:43:31;13.95;;;2.20;;
37455;SDS011;23316;50.718;7.328;2022-12-24T03:46:01;9.32;;;1.95;;
37455;SDS011;23316;50.718;7.328;2022-12-24T03:48:33;13.25;;;2.22;;
37455;SDS011;23316;50.718;7.328;2022-12-24T03:51:01;7.97;;;1.95;;
37455;SDS011;23316;50.718;7.328;2022-12-24T03:53:29;9.98;;;2.30;;
37455;SDS011;23316;50.718;7.328;2022-12-24T03:55:56;9.02;;;2.10;;
37455;SDS011;23316;50.718;7.328;2022-12-24T03:58:23;24.73;;;3.72;;
37455;SDS011;23316;50.718;7.328;2022-12-24T04:00:51;13.57;;;2.72;;
37455;SDS011;23316;50.718;7.328;2022-12-24T04:03:18;13.27;;;2.35;;
37455;SDS011;23316;50.718;7.328;2022-12-24T04:05:47;7.93;;;1.80;;
37455;SDS011;23316;50.718;7.328;2022-12-24T04:08:24;14.50;;;2.42;;
37455;SDS011;23316;50.718;7.328;2022-12-24T04:10:52;13.63;;;2.47;;
37455;SDS011;23316;50.718;7.328;2022-12-24T04:13:19;12.98;;;2.72;;
37455;SDS011;23316;50.718;7.328;2022-12-24T04:15:54;7.90;;;1.65;;
37455;SDS011;23316;50.718;7.328;2022-12-24T04:18:22;10.88;;;2.00;;
37455;SDS011;23316;50.718;7.328;2022-12-24T04:20:51;6.70;;;1.73;;
37455;SDS011;23316;50.718;7.328;2022-12-24T04:23:18;13.80;;;2.55;;
37455;SDS011;23316;50.718;7.328;2022-12-24T04:25:46;18.58;;;3.17;;
37455;SDS011;23316;50.718;7.328;2022-12-24T04:28:13;20.98;;;2.90;;
37455;SDS011;23316;50.718;7.328;2022-12-24T04:30:41;16.17;;;2.90;;
37455;SDS011;23316;50.718;7.328;2022-12-24T04:33:09;10.20;;;2.63;;
37455;SDS011;23316;50.718;7.328;2022-12-24T04:35:37;16.85;;;2.90;;
37455;SDS011;23316;50.718;7.328;2022-12-24T04:38:07;18.10;;;2.97;;
37455;SDS011;23316;50.718;7.328;2022-12-24T04:40:35;12.70;;;2.80;;
37455;SDS011;23316;50.718;7.328;2022-12-24T04:43:02;8.85;;;1.85;;
37455;SDS011;23316;50.718;7.328;2022-12-24T04:45:30;7.32;;;1.30;;
37455;SDS011;23316;50.718;7.328;2022-12-24T04:47:57;8.15;;;1.50;;
37455;SDS011;23316;50.718;7.328;2022-12-24T04:50:24;8.25;;;1.92;;
37455;SDS011;23316;50.718;7.328;2022-12-24T04:52:51;9.13;;;1.67;;
37455;SDS011;23316;50.718;7.328;2022-12-24T04:55:20;5.72;;;1.20;;
37455;SDS011;23316;50.718;7.328;2022-12-24T04:57:47;9.07;;;1.83;;
37455;SDS011;23316;50.718;7.328;2022-12-24T05:00:15;5.55;;;1.20;;
37455;SDS011;23316;50.718;7.328;2022-12-24T05:02:42;5.63;;;1.17;;
37455;SDS011;23316;50.718;7.328;2022-12-24T05:05:09;2.92;;;0.52;;
37455;SDS011;23316;50.718;7.328;2022-12-24T05:07:36;7.45;;;1.33;;
37455;SDS011;23316;50.718;7.328;2022-12-24T05:10:04;3.97;;;0.95;;
37455;SDS011;23316;50.718;7.328;2022-12-24T05:12:34;2.10;;;0.80;;
37455;SDS011;23316;50.718;7.328;2022-12-24T05:15:01;4.28;;;0.90;;
37455;SDS011;23316;50.718;7.328;2022-12-24T05:17:28;2.70;;;0.65;;
37455;SDS011;23316;50.718;7.328;2022-12-24T05:19:55;4.47;;;0.60;;
37455;SDS011;23316;50.718;7.328;2022-12-24T05:22:23;7.80;;;1.15;;
37455;SDS011;23316;50.718;7.328;2022-12-24T05:25:08;4.72;;;0.90;;
37455;SDS011;23316;50.718;7.328;2022-12-24T05:27:54;4.70;;;1.13;;
37455;SDS011;23316;50.718;7.328;2022-12-24T05:30:21;4.22;;;0.98;;
37455;SDS011;23316;50.718;7.328;2022-12-24T05:32:48;4.22;;;1.08;;
37455;SDS011;23316;50.718;7.328;2022-12-24T05:35:16;9.55;;;2.00;;
37455;SDS011;23316;50.718;7.328;2022-12-24T05:37:44;13.05;;;1.80;;
37455;SDS011;23316;50.718;7.328;2022-12-24T05:40:11;8.75;;;1.88;;
37455;SDS011;23316;50.718;7.328;2022-12-24T05:42:38;5.80;;;1.42;;
37455;SDS011;23316;50.718;7.328;2022-12-24T05:45:08;9.90;;;1.45;;
37455;SDS011;23316;50.718;7.328;2022-12-24T05:47:35;8.43;;;1.75;;
37455;SDS011;23316;50.718;7.328;2022-12-24T05:50:03;9.25;;;1.92;;
37455;SDS011;23316;50.718;7.328;2022-12-24T05:52:30;8.18;;;1.77;;
37455;SDS011;23316;50.718;7.328;2022-12-24T05:54:58;11.30;;;1.90;;
37455;SDS011;23316;50.718;7.328;2022-12-24T05:57:25;11.25;;;1.83;;
37455;SDS011;23316;50.718;7.328;2022-12-24T05:59:52;9.15;;;2.08;;
37455;SDS011;23316;50.718;7.328;2022-12-24T06:02:21;8.52;;;1.48;;
37455;SDS011;23316;50.718;7.328;2022-12-24T06:04:48;8.68;;;1.60;;
37455;SDS011;23316;50.718;7.328;2022-12-24T06:07:15;7.22;;;2.05;;
37455;SDS011;23316;50.718;7.328;2022-12-24T06:09:42;7.60;;;1.30;;
37455;SDS011;23316;50.718;7.328;2022-12-24T06:12:09;8.40;;;1.38;;
37455;SDS011;23316;50.718;7.328;2022-12-24T06:14:37;10.48;;;2.10;;
37455;SDS011;23316;50.718;7.328;2022-12-24T06:17:04;11.70;;;2.35;;
37455;SDS011;23316;50.718;7.328;2022-12-24T06:19:33;6.65;;;1.20;;
37455;SDS011;23316;50.718;7.328;2022-12-24T06:22:00;6.65;;;1.90;;
37455;SDS011;23316;50.718;7.328;2022-12-24T06:24:27;9.95;;;1.35;;
37455;SDS011;23316;50.718;7.328;2022-12-24T06:26:54;6.78;;;1.42;;
37455;SDS011;23316;50.718;7.328;2022-12-24T06:29:21;5.82;;;1.10;;
37455;SDS011;23316;50.718;7.328;2022-12-24T06:31:49;7.82;;;1.20;;
37455;SDS011;23316;50.718;7.328;2022-12-24T06:34:16;5.68;;;1.10;;
37455;SDS011;23316;50.718;7.328;2022-12-24T06:36:45;7.13;;;0.98;;
37455;SDS011;23316;50.718;7.328;2022-12-24T06:39:12;5.00;;;1.17;;
37455;SDS011;23316;50.718;7.328;2022-12-24T06:41:39;8.48;;;1.90;;
37455;SDS011;23316;50.718;7.328;2022-12-24T06:44:07;8.68;;;1.25;;
37455;SDS011;23316;50.718;7.328;2022-12-24T06:46:34;7.22;;;1.35;;
37455;SDS011;23316;50.718;7.328;2022-12-24T06:49:01;11.65;;;1.63;;
37455;SDS011;23316;50.718;7.328;2022-12-24T06:51:29;7.35;;;1.50;;
37455;SDS011;23316;50.718;7.328;2022-12-24T06:53:57;7.10;;;1.45;;
37455;SDS011;23316;50.718;7.328;2022-12-24T06:56:25;10.63;;;1.92;;
37455;SDS011;23316;50.718;7.328;2022-12-24T06:58:52;8.48;;;1.40;;
37455;SDS011;23316;50.718;7.328;2022-12-24T07:01:21;11.85;;;2.40;;
37455;SDS011;23316;50.718;7.328;2022-12-24T07:03:49;12.80;;;1.83;;
37455;SDS011;23316;50.718;7.328;2022-12-24T07:06:18;11.75;;;2.00;;
37455;SDS011;23316;50.718;7.328;2022-12-24T07:08:49;21.88;;;5.63;;
37455;SDS011;23316;50.718;7.328;2022-12-24T07:11:19;12.98;;;4.97;;
37455;SDS011;23316;50.718;7.328;2022-12-24T07:13:47;20.13;;;5.22;;
37455;SDS011;23316;50.718;7.328;2022-12-24T07:16:15;14.15;;;4.18;;
37455;SDS011;23316;50.718;7.328;2022-12-24T07:18:43;14.63;;;4.75;;
37455;SDS011;23316;50.718;7.328;2022-12-24T07:21:11;19.58;;;9.00;;
37455;SDS011;23316;50.718;7.328;2022-12-24T07:23:39;22.88;;;9.57;;
37455;SDS011;23316;50.718;7.328;2022-12-24T07:26:07;25.55;;;12.07;;
37455;SDS011;23316;50.718;7.328;2022-12-24T07:28:37;17.77;;;8.02;;
37455;SDS011;23316;50.718;7.328;2022-12-24T07:31:05;30.88;;;15.68;;
37455;SDS011;23316;50.718;7.328;2022-12-24T07:33:33;24.95;;;8.15;;
37455;SDS011;23316;50.718;7.328;2022-12-24T07:36:01;16.15;;;5.72;;
37455;SDS011;23316;50.718;7.328;2022-12-24T07:38:31;14.15;;;4.47;;
37455;SDS011;23316;50.718;7.328;2022-12-24T07:40:59;16.90;;;3.95;;
37455;SDS011;23316;50.718;7.328;2022-12-24T07:43:27;13.55;;;4.38;;
37455;SDS011;23316;50.718;7.328;2022-12-24T07:45:56;18.60;;;4.57;;
37455;SDS011;23316;50.718;7.328;2022-12-24T07:48:24;15.68;;;3.75;;
37455;SDS011;23316;50.718;7.328;2022-12-24T07:50:52;15.63;;;4.22;;
37455;SDS011;23316;50.718;7.328;2022-12-24T07:53:20;14.13;;;3.25;;
37455;SDS011;23316;50.718;7.328;2022-12-24T07:55:47;21.80;;;6.05;;
37455;SDS011;23316;50.718;7.328;2022-12-24T07:58:15;13.10;;;4.00;;
37455;SDS011;23316;50.718;7.328;2022-12-24T08:00:42;24.25;;;4.25;;
37455;SDS011;23316;50.718;7.328;2022-12-24T08:03:13;17.20;;;3.60;;
37455;SDS011;23316;50.718;7.328;2022-12-24T08:05:42;14.88;;;3.90;;
37455;SDS011;23316;50.718;7.328;2022-12-24T08:08:09;13.82;;;3.42;;
37455;SDS011;23316;50.718;7.328;2022-12-24T08:10:37;20.13;;;3.58;;
37455;SDS011;23316;50.718;7.328;2022-12-24T08:13:05;20.85;;;3.92;;
37455;SDS011;23316;50.718;7.328;2022-12-24T08:15:32;12.82;;;2.75;;
37455;SDS011;23316;50.718;7.328;2022-12-24T08:17:59;17.30;;;3.50;;
37455;SDS011;23316;50.718;7.328;2022-12-24T08:20:28;16.92;;;3.88;;
37455;SDS011;23316;50.718;7.328;2022-12-24T08:22:55;20.50;;;4.75;;
37455;SDS011;23316;50.718;7.328;2022-12-24T08:25:22;21.67;;;5.78;;
37455;SDS011;23316;50.718;7.328;2022-12-24T08:27:49;18.73;;;5.07;;
37455;SDS011;23316;50.718;7.328;2022-12-24T08:30:17;22.55;;;5.10;;
37455;SDS011;23316;50.718;7.328;2022-12-24T08:32:44;19.70;;;3.97;;
37455;SDS011;23316;50.718;7.328;2022-12-24T08:35:11;19.95;;;4.30;;
37455;SDS011;23316;50.718;7.328;2022-12-24T08:37:40;28.08;;;5.32;;
37455;SDS011;23316;50.718;7.328;2022-12-24T08:40:07;19.90;;;5.22;;
37455;SDS011;23316;50.718;7.328;2022-12-24T08:42:35;17.40;;;3.80;;
37455;SDS011;23316;50.718;7.328;2022-12-24T08:45:03;13.55;;;4.00;;
37455;SDS011;23316;50.718;7.328;2022-12-24T08:47:30;20.15;;;4.18;;
37455;SDS011;23316;50.718;7.328;2022-12-24T08:49:58;24.27;;;4.70;;
37455;SDS011;23316;50.718;7.328;2022-12-24T08:52:25;21.20;;;4.93;;
37455;SDS011;23316;50.718;7.328;2022-12-24T08:54:53;20.02;;;4.32;;
37455;SDS011;23316;50.718;7.328;2022-12-24T08:57:21;24.05;;;4.80;;
37455;SDS011;23316;50.718;7.328;2022-12-24T08:59:48;19.05;;;4.90;;
37455;SDS011;23316;50.718;7.328;2022-12-24T09:02:15;25.02;;;3.85;;
37455;SDS011;23316;50.718;7.328;2022-12-24T09:04:43;22.10;;;4.40;;
37455;SDS011;23316;50.718;7.328;2022-12-24T09:07:10;14.07;;;3.63;;
37455;SDS011;23316;50.718;7.328;2022-12-24T09:09:37;19.17;;;3.95;;
37455;SDS011;23316;50.718;7.328;2022-12-24T09:12:06;18.77;;;4.63;;
37455;SDS011;23316;50.718;7.328;2022-12-24T09:14:34;20.58;;;4.32;;
37455;SDS011;23316;50.718;7.328;2022-12-24T09:17:01;17.55;;;4.22;;
37455;SDS011;23316;50.718;7.328;2022-12-24T09:19:29;15.85;;;4.35;;
37455;SDS011;23316;50.718;7.328;2022-12-24T09:21:56;15.68;;;3.92;;
37455;SDS011;23316;50.718;7.328;2022-12-24T09:24:23;13.77;;;3.05;;
37455;SDS011;23316;50.718;7.328;2022-12-24T09:26:50;19.80;;;4.90;;
37455;SDS011;23316;50.718;7.328;2022-12-24T09:29:19;21.98;;;3.95;;
37455;SDS011;23316;50.718;7.328;2022-12-24T09:31:46;16.35;;;3.33;;
37455;SDS011;23316;50.718;7.328;2022-12-24T09:34:14;14.82;;;3.20;;
37455;SDS011;23316;50.718;7.328;2022-12-24T09:36:41;14.93;;;3.13;;
37455;SDS011;23316;50.718;7.328;2022-12-24T09:39:10;17.40;;;3.80;;
37455;SDS011;23316;50.718;7.328;2022-12-24T09:41:40;10.90;;;3.42;;
37455;SDS011;23316;50.718;7.328;2022-12-24T09:44:21;14.63;;;3.08;;
37455;SDS011;23316;50.718;7.328;2022-12-24T09:46:57;20.85;;;3.63;;
37455;SDS011;23316;50.718;7.328;2022-12-24T09:49:30;20.02;;;3.97;;
37455;SDS011;23316;50.718;7.328;2022-12-24T09:54:33;22.25;;;3.20;;
37455;SDS011;23316;50.718;7.328;2022-12-24T09:57:04;20.00;;;3.50;;
37455;SDS011;23316;50.718;7.328;2022-12-24T09:59:39;19.05;;;3.65;;
37455;SDS011;23316;50.718;7.328;2022-12-24T10:02:09;15.48;;;3.33;;
37455;SDS011;23316;50.718;7.328;2022-12-24T10:04:39;22.45;;;4.50;;
37455;SDS011;23316;50.718;7.328;2022-12-24T10:07:10;18.05;;;3.35;;
37455;SDS011;23316;50.718;7.328;2022-12-24T10:09:51;22.50;;;3.83;;
37455;SDS011;23316;50.718;7.328;2022-12-24T10:12:28;19.75;;;3.22;;
37455;SDS011;23316;50.718;7.328;2022-12-24T10:15:06;22.75;;;3.40;;
37455;SDS011;23316;50.718;7.328;2022-12-24T10:17:43;22.58;;;3.90;;
37455;SDS011;23316;50.718;7.328;2022-12-24T10:20:29;19.35;;;3.40;;
37455;SDS011;23316;50.718;7.328;2022-12-24T10:23:04;20.85;;;3.28;;
37455;SDS011;23316;50.718;7.328;2022-12-24T10:25:38;21.58;;;3.25;;
37455;SDS011;23316;50.718;7.328;2022-12-24T10:28:12;19.35;;;4.18;;
37455;SDS011;23316;50.718;7.328;2022-12-24T10:30:43;17.92;;;3.63;;
37455;SDS011;23316;50.718;7.328;2022-12-24T10:33:15;15.40;;;3.03;;
37455;SDS011;23316;50.718;7.328;2022-12-24T10:35:46;26.33;;;5.55;;
37455;SDS011;23316;50.718;7.328;2022-12-24T10:38:17;22.42;;;4.07;;
37455;SDS011;23316;50.718;7.328;2022-12-24T10:40:45;20.67;;;3.53;;
37455;SDS011;23316;50.718;7.328;2022-12-24T10:43:15;24.17;;;4.70;;
37455;SDS011;23316;50.718;7.328;2022-12-24T10:45:45;26.33;;;4.13;;
37455;SDS011;23316;50.718;7.328;2022-12-24T10:48:18;16.08;;;3.28;;
37455;SDS011;23316;50.718;7.328;2022-12-24T10:50:51;24.98;;;7.03;;
37455;SDS011;23316;50.718;7.328;2022-12-24T10:53:26;19.38;;;4.00;;
37455;SDS011;23316;50.718;7.328;2022-12-24T10:56:14;21.65;;;3.95;;
37455;SDS011;23316;50.718;7.328;2022-12-24T10:58:44;24.17;;;3.72;;
37455;SDS011;23316;50.718;7.328;2022-12-24T11:01:18;22.25;;;4.65;;
37455;SDS011;23316;50.718;7.328;2022-12-24T11:03:45;19.33;;;3.38;;
37455;SDS011;23316;50.718;7.328;2022-12-24T11:06:26;19.13;;;4.68;;
37455;SDS011;23316;50.718;7.328;2022-12-24T11:08:53;17.88;;;4.32;;
37455;SDS011;23316;50.718;7.328;2022-12-24T11:11:45;19.67;;;4.30;;
37455;SDS011;23316;50.718;7.328;2022-12-24T11:14:13;28.98;;;4.10;;
37455;SDS011;23316;50.718;7.328;2022-12-24T11:16:48;20.50;;;3.45;;
37455;SDS011;23316;50.718;7.328;2022-12-24T11:19:19;18.02;;;3.65;;
37455;SDS011;23316;50.718;7.328;2022-12-24T11:21:57;27.17;;;3.80;;
37455;SDS011;23316;50.718;7.328;2022-12-24T11:24:27;30.67;;;3.88;;
37455;SDS011;23316;50.718;7.328;2022-12-24T11:35:46;25.50;;;4.35;;
37455;SDS011;23316;50.718;7.328;2022-12-24T11:38:19;16.33;;;3.47;;
37455;SDS011;23316;50.718;7.328;2022-12-24T11:40:49;22.33;;;4.00;;
37455;SDS011;23316;50.718;7.328;2022-12-24T11:43:23;16.15;;;3.42;;
37455;SDS011;23316;50.718;7.328;2022-12-24T11:46:18;21.25;;;3.60;;
37455;SDS011;23316;50.718;7.328;2022-12-24T11:48:49;22.15;;;4.03;;
37455;SDS011;23316;50.718;7.328;2022-12-24T11:51:31;21.30;;;3.92;;
37455;SDS011;23316;50.718;7.328;2022-12-24T11:54:00;36.15;;;12.23;;
37455;SDS011;23316;50.718;7.328;2022-12-24T11:56:36;30.05;;;5.68;;
37455;SDS011;23316;50.718;7.328;2022-12-24T11:59:11;23.52;;;4.32;;
37455;SDS011;23316;50.718;7.328;2022-12-24T12:01:47;25.00;;;4.07;;
37455;SDS011;23316;50.718;7.328;2022-12-24T12:04:21;22.23;;;3.55;;
37455;SDS011;23316;50.718;7.328;2022-12-24T12:06:51;27.58;;;4.20;;
37455;SDS011;23316;50.718;7.328;2022-12-24T12:09:23;21.98;;;4.05;;
37455;SDS011;23316;50.718;7.328;2022-12-24T12:11:54;16.13;;;3.70;;
37455;SDS011;23316;50.718;7.328;2022-12-24T12:14:26;16.73;;;3.13;;
37455;SDS011;23316;50.718;7.328;2022-12-24T12:17:00;20.33;;;3.78;;
37455;SDS011;23316;50.718;7.328;2022-12-24T12:19:37;20.50;;;4.13;;
37455;SDS011;23316;50.718;7.328;2022-12-24T12:22:10;20.80;;;3.17;;
37455;SDS011;23316;50.718;7.328;2022-12-24T12:24:46;22.45;;;3.92;;
37455;SDS011;23316;50.718;7.328;2022-12-24T12:27:18;20.75;;;3.50;;
37455;SDS011;23316;50.718;7.328;2022-12-24T12:29:51;19.52;;;3.65;;
37455;SDS011;23316;50.718;7.328;2022-12-24T12:32:27;17.00;;;3.92;;
37455;SDS011;23316;50.718;7.328;2022-12-24T12:35:04;21.35;;;4.28;;
37455;SDS011;23316;50.718;7.328;2022-12-24T12:37:39;19.58;;;3.83;;
37455;SDS011;23316;50.718;7.328;2022-12-24T12:40:11;17.52;;;3.80;;
37455;SDS011;23316;50.718;7.328;2022-12-24T12:42:40;17.15;;;3.97;;
37455;SDS011;23316;50.718;7.328;2022-12-24T12:45:25;20.52;;;4.43;;
37455;SDS011;23316;50.718;7.328;2022-12-24T12:48:07;21.85;;;3.63;;
37455;SDS011;23316;50.718;7.328;2022-12-24T12:50:47;21.58;;;4.05;;
37455;SDS011;23316;50.718;7.328;2022-12-24T12:53:23;21.20;;;4.05;;
37455;SDS011;23316;50.718;7.328;2022-12-24T12:56:00;14.98;;;3.28;;
37455;SDS011;23316;50.718;7.328;2022-12-24T12:58:37;22.85;;;4.05;;
37455;SDS011;23316;50.718;7.328;2022-12-24T13:01:10;28.77;;;4.53;;
37455;SDS011;23316;50.718;7.328;2022-12-24T13:06:51;22.75;;;3.92;;
37455;SDS011;23316;50.718;7.328;2022-12-24T13:09:42;17.50;;;3.83;;
37455;SDS011;23316;50.718;7.328;2022-12-24T13:12:39;21.17;;;4.60;;
37455;SDS011;23316;50.718;7.328;2022-12-24T13:18:10;22.25;;;4.05;;
37455;SDS011;23316;50.718;7.328;2022-12-24T13:20:49;17.23;;;4.18;;
37455;SDS011;23316;50.718;7.328;2022-12-24T13:23:20;14.25;;;3.25;;
37455;SDS011;23316;50.718;7.328;2022-12-24T13:25:49;14.43;;;3.22;;
37455;SDS011;23316;50.718;7.328;2022-12-24T13:28:30;16.10;;;3.25;;
37455;SDS011;23316;50.718;7.328;2022-12-24T13:33:57;12.13;;;3.17;;
37455;SDS011;23316;50.718;7.328;2022-12-24T13:36:58;17.80;;;4.55;;
37455;SDS011;23316;50.718;7.328;2022-12-24T13:39:29;42.90;;;14.82;;
37455;SDS011;23316;50.718;7.328;2022-12-24T13:42:51;21.10;;;6.95;;
37455;SDS011;23316;50.718;7.328;2022-12-24T13:45:45;32.38;;;11.10;;
37455;SDS011;23316;50.718;7.328;2022-12-24T13:48:20;20.42;;;5.70;;
37455;SDS011;23316;50.718;7.328;2022-12-24T13:50:58;19.98;;;3.78;;
37455;SDS011;23316;50.718;7.328;2022-12-24T13:53:27;15.98;;;2.85;;
37455;SDS011;23316;50.718;7.328;2022-12-24T13:56:01;27.45;;;4.00;;
37455;SDS011;23316;50.718;7.328;2022-12-24T13:58:33;24.58;;;4.60;;
37455;SDS011;23316;50.718;7.328;2022-12-24T14:01:02;14.95;;;3.20;;
37455;SDS011;23316;50.718;7.328;2022-12-24T14:03:34;17.15;;;3.22;;
37455;SDS011;23316;50.718;7.328;2022-12-24T14:06:07;23.50;;;3.97;;
37455;SDS011;23316;50.718;7.328;2022-12-24T14:08:37;17.05;;;3.08;;
37455;SDS011;23316;50.718;7.328;2022-12-24T14:11:10;12.85;;;2.80;;
37455;SDS011;23316;50.718;7.328;2022-12-24T14:16:40;15.32;;;3.55;;
37455;SDS011;23316;50.718;7.328;2022-12-24T14:19:11;17.15;;;3.40;;
37455;SDS011;23316;50.718;7.328;2022-12-24T14:21:41;16.05;;;2.95;;
37455;SDS011;23316;50.718;7.328;2022-12-24T14:24:12;16.35;;;3.33;;
37455;SDS011;23316;50.718;7.328;2022-12-24T14:26:44;12.27;;;2.83;;
37455;SDS011;23316;50.718;7.328;2022-12-24T14:29:15;15.90;;;2.85;;
37455;SDS011;23316;50.718;7.328;2022-12-24T14:31:50;17.40;;;3.53;;
37455;SDS011;23316;50.718;7.328;2022-12-24T14:34:18;16.17;;;3.60;;
37455;SDS011;23316;50.718;7.328;2022-12-24T14:36:45;13.20;;;3.10;;
37455;SDS011;23316;50.718;7.328;2022-12-24T14:39:19;13.23;;;3.50;;
37455;SDS011;23316;50.718;7.328;2022-12-24T14:41:52;15.15;;;3.80;;
37455;SDS011;23316;50.718;7.328;2022-12-24T14:44:27;17.63;;;4.32;;
37455;SDS011;23316;50.718;7.328;2022-12-24T14:47:05;17.30;;;4.63;;
37455;SDS011;23316;50.718;7.328;2022-12-24T14:49:51;14.20;;;3.58;;
37455;SDS011;23316;50.718;7.328;2022-12-24T14:52:29;13.43;;;3.30;;
37455;SDS011;23316;50.718;7.328;2022-12-24T15:00:44;12.73;;;3.22;;
37455;SDS011;23316;50.718;7.328;2022-12-24T15:03:12;20.65;;;4.25;;
37455;SDS011;23316;50.718;7.328;2022-12-24T15:05:40;20.42;;;4.20;;
37455;SDS011;23316;50.718;7.328;2022-12-24T15:08:09;13.70;;;3.47;;
37455;SDS011;23316;50.718;7.328;2022-12-24T15:10:41;15.75;;;3.65;;
37455;SDS011;23316;50.718;7.328;2022-12-24T15:13:14;15.77;;;3.65;;
37455;SDS011;23316;50.718;7.328;2022-12-24T15:15:52;12.25;;;3.38;;
37455;SDS011;23316;50.718;7.328;2022-12-24T15:18:22;13.55;;;2.95;;
37455;SDS011;23316;50.718;7.328;2022-12-24T15:20:52;12.75;;;3.33;;
37455;SDS011;23316;50.718;7.328;2022-12-24T15:23:24;18.38;;;3.45;;
37455;SDS011;23316;50.718;7.328;2022-12-24T15:26:04;16.40;;;2.75;;
37455;SDS011;23316;50.718;7.328;2022-12-24T15:28:35;12.43;;;3.08;;
37455;SDS011;23316;50.718;7.328;2022-12-24T15:31:06;15.00;;;3.20;;